createdAt,value
2022-10-11T00:00:56.523Z,5.72
2022-10-11T00:03:24.525Z,5.03
2022-10-11T00:05:53.901Z,4.88
2022-10-11T00:08:23.231Z,5.03
2022-10-11T00:10:58.075Z,5.45
2022-10-11T00:13:26.336Z,5.53
2022-10-11T00:15:55.264Z,6.22
2022-10-11T00:18:23.541Z,5.82
2022-10-11T00:20:51.517Z,6.15
2022-10-11T00:23:19.512Z,5.85
2022-10-11T00:25:57.965Z,5.65
2022-10-11T00:28:25.993Z,5.50
2022-10-11T00:30:53.949Z,5.88
2022-10-11T00:33:22.123Z,6.13
2022-10-11T00:35:50.392Z,6.40
2022-10-11T00:38:19.231Z,6.20
2022-10-11T00:40:48.613Z,6.68
2022-10-11T00:43:18.616Z,6.43
2022-10-11T00:46:29.809Z,6.05
2022-10-11T00:49:04.071Z,5.57
2022-10-11T00:51:40.496Z,6.18
2022-10-11T00:54:12.811Z,6.07
2022-10-11T00:56:44.918Z,6.43
2022-10-11T00:59:17.681Z,6.78
2022-10-11T01:01:45.878Z,6.43
2022-10-11T01:04:13.985Z,6.68
2022-10-11T01:06:43.083Z,7.10
2022-10-11T01:09:11.910Z,7.57
2022-10-11T01:11:43.567Z,6.45
2022-10-11T01:14:33.404Z,7.60
2022-10-11T01:17:10.299Z,7.05
2022-10-11T01:19:53.868Z,7.00
2022-10-11T01:22:38.896Z,6.20
2022-10-11T01:25:19.751Z,7.05
2022-10-11T01:28:03.850Z,7.05
2022-10-11T01:30:35.368Z,6.93
2022-10-11T01:33:14.213Z,6.60
2022-10-11T01:35:50.596Z,7.57
2022-10-11T01:38:25.102Z,7.07
2022-10-11T01:40:57.580Z,7.10
2022-10-11T01:43:27.363Z,7.72
2022-10-11T01:45:59.322Z,7.25
2022-10-11T01:48:27.312Z,7.20
2022-10-11T01:50:58.657Z,7.05
2022-10-11T01:53:53.070Z,7.20
2022-10-11T01:56:37.029Z,7.38
2022-10-11T01:59:21.085Z,7.22
2022-10-11T02:01:59.618Z,7.72
2022-10-11T02:04:34.705Z,7.85
2022-10-11T02:07:11.631Z,7.60
2022-10-11T02:09:46.606Z,8.05
2022-10-11T02:12:24.767Z,6.85
2022-10-11T02:14:57.097Z,7.07
2022-10-11T02:17:32.911Z,7.65
2022-10-11T02:20:05.047Z,8.55
2022-10-11T02:22:36.710Z,7.82
2022-10-11T02:25:09.864Z,7.35
2022-10-11T02:27:41.790Z,7.57
2022-10-11T02:30:11.236Z,7.40
2022-10-11T02:32:44.941Z,7.65
2022-10-11T02:35:13.626Z,7.60
2022-10-11T02:37:48.577Z,8.32
2022-10-11T02:40:22.310Z,7.75
2022-10-11T02:42:58.761Z,8.10
2022-10-11T02:45:31.653Z,7.97
2022-10-11T02:48:02.129Z,7.80
2022-10-11T02:50:30.204Z,7.82
2022-10-11T02:52:58.109Z,8.20
2022-10-11T02:55:26.071Z,7.32
2022-10-11T02:57:53.931Z,8.00
2022-10-11T03:00:22.151Z,8.30
2022-10-11T03:02:50.225Z,7.13
2022-10-11T03:05:19.679Z,7.97
2022-10-11T03:07:47.575Z,7.90
2022-10-11T03:10:15.518Z,7.55
2022-10-11T03:12:43.478Z,8.27
2022-10-11T03:15:12.047Z,8.13
2022-10-11T03:17:40.115Z,8.43
2022-10-11T03:20:09.202Z,8.20
2022-10-11T03:22:38.685Z,7.53
2022-10-11T03:25:07.085Z,8.30
2022-10-11T03:27:35.082Z,8.07
2022-10-11T03:30:03.765Z,8.07
2022-10-11T03:32:31.725Z,8.32
2022-10-11T03:34:59.601Z,8.27
2022-10-11T03:37:27.580Z,8.05
2022-10-11T03:39:56.857Z,7.97
2022-10-11T03:42:24.790Z,8.38
2022-10-11T03:44:52.785Z,8.25
2022-10-11T03:47:20.883Z,8.55
2022-10-11T03:49:48.832Z,7.93
2022-10-11T03:52:16.740Z,8.15
2022-10-11T03:54:44.860Z,7.93
2022-10-11T03:57:14.146Z,7.97
2022-10-11T03:59:42.129Z,8.55
2022-10-11T04:02:10.148Z,8.32
2022-10-11T04:04:41.124Z,7.88
2022-10-11T04:07:09.427Z,7.53
2022-10-11T04:09:37.574Z,7.78
2022-10-11T04:12:05.844Z,7.72
2022-10-11T04:14:42.514Z,7.30
2022-10-11T04:17:10.466Z,6.90
2022-10-11T04:19:38.460Z,7.85
2022-10-11T04:22:06.963Z,7.63
2022-10-11T04:24:34.892Z,7.40
2022-10-11T04:27:02.986Z,7.53
2022-10-11T04:29:32.792Z,7.60
2022-10-11T04:32:02.444Z,7.78
2022-10-11T04:34:30.333Z,8.15
2022-10-11T04:36:58.407Z,7.68
2022-10-11T04:39:26.290Z,7.18
2022-10-11T04:41:54.191Z,7.13
2022-10-11T04:44:22.387Z,7.93
2022-10-11T04:46:50.211Z,8.52
2022-10-11T04:49:21.276Z,8.32
2022-10-11T04:51:49.162Z,8.68
2022-10-11T04:54:17.240Z,7.88
2022-10-11T04:56:45.226Z,7.60
2022-10-11T04:59:13.127Z,8.57
2022-10-11T05:01:41.091Z,7.88
2022-10-11T05:04:09.331Z,7.93
2022-10-11T05:06:38.687Z,7.53
2022-10-11T05:09:06.624Z,7.55
2022-10-11T05:11:34.549Z,7.88
2022-10-11T05:14:02.500Z,7.28
2022-10-11T05:16:30.558Z,6.88
2022-10-11T05:18:58.487Z,8.00
2022-10-11T05:21:28.554Z,8.20
2022-10-11T05:23:58.865Z,7.32
2022-10-11T05:26:28.355Z,6.80
2022-10-11T05:28:56.924Z,5.80
2022-10-11T05:31:25.227Z,8.20
2022-10-11T05:33:53.196Z,6.60
2022-10-11T05:36:21.290Z,6.18
2022-10-11T05:38:49.365Z,6.72
2022-10-11T05:41:18.967Z,6.63
2022-10-11T05:43:47.477Z,6.57
2022-10-11T05:46:15.560Z,6.32
2022-10-11T05:48:43.562Z,6.63
2022-10-11T05:51:13.027Z,6.18
2022-10-11T05:53:41.297Z,6.25
2022-10-11T05:56:20.711Z,5.88
2022-10-11T05:58:51.084Z,6.28
2022-10-11T06:01:21.371Z,6.22
2022-10-11T06:03:49.702Z,6.00
2022-10-11T06:06:17.926Z,6.07
2022-10-11T06:08:46.721Z,6.95
2022-10-11T06:11:17.325Z,6.68
2022-10-11T06:13:46.755Z,7.07
2022-10-11T06:16:14.795Z,5.88
2022-10-11T06:18:42.992Z,7.05
2022-10-11T06:21:11.037Z,6.30
2022-10-11T06:23:39.142Z,7.75
2022-10-11T06:26:09.793Z,8.35
2022-10-11T06:28:39.074Z,7.60
2022-10-11T06:31:09.109Z,7.63
2022-10-11T06:33:37.678Z,9.73
2022-10-11T06:36:08.493Z,8.32
2022-10-11T06:38:39.816Z,7.72
2022-10-11T06:41:14.686Z,7.88
2022-10-11T06:43:42.634Z,8.45
2022-10-11T06:46:12.783Z,8.00
2022-10-11T06:48:41.681Z,7.47
2022-10-11T06:51:09.628Z,8.05
2022-10-11T06:53:38.018Z,8.00
2022-10-11T06:56:08.483Z,9.55
2022-10-11T06:58:37.122Z,8.02
2022-10-11T07:01:06.745Z,8.80
2022-10-11T07:03:36.190Z,7.47
2022-10-11T07:06:05.467Z,7.00
2022-10-11T07:08:34.393Z,8.32
2022-10-11T07:11:02.687Z,7.95
2022-10-11T07:13:30.873Z,7.72
2022-10-11T07:16:01.203Z,7.82
2022-10-11T07:18:29.388Z,7.85
2022-10-11T07:21:02.944Z,8.40
2022-10-11T07:23:31.049Z,7.32
2022-10-11T07:26:01.322Z,7.80
2022-10-11T07:28:30.528Z,7.40
2022-10-11T07:30:59.577Z,7.30
2022-10-11T07:33:29.189Z,8.32
2022-10-11T07:36:00.170Z,7.18
2022-10-11T07:38:28.298Z,6.88
2022-10-11T07:40:56.459Z,8.13
2022-10-11T07:43:24.968Z,7.03
2022-10-11T07:45:55.668Z,7.18
2022-10-11T07:48:24.053Z,7.35
2022-10-11T07:50:51.942Z,6.80
2022-10-11T07:53:21.475Z,7.20
2022-10-11T07:55:49.901Z,18.48
2022-10-11T07:58:17.872Z,7.13
2022-10-11T08:00:45.990Z,6.65
2022-10-11T08:03:14.072Z,7.38
2022-10-11T08:05:42.148Z,7.32
2022-10-11T08:08:10.349Z,7.53
2022-10-11T08:10:41.051Z,7.28
2022-10-11T08:13:09.011Z,6.70
2022-10-11T08:15:37.009Z,6.78
2022-10-11T08:18:05.435Z,7.10
2022-10-11T08:20:33.412Z,7.25
2022-10-11T08:23:01.773Z,7.18
2022-10-11T08:25:29.794Z,7.05
2022-10-11T08:27:59.228Z,7.45
2022-10-11T08:30:27.146Z,6.97
2022-10-11T08:32:55.054Z,7.13
2022-10-11T08:35:23.044Z,6.68
2022-10-11T08:37:52.387Z,7.55
2022-10-11T08:40:23.874Z,6.45
2022-10-11T08:42:59.202Z,6.10
2022-10-11T08:45:37.050Z,7.10
2022-10-11T08:48:13.868Z,7.07
2022-10-11T08:50:43.924Z,6.55
2022-10-11T08:53:20.882Z,6.75
2022-10-11T08:55:52.105Z,7.72
2022-10-11T08:58:24.345Z,6.43
2022-10-11T09:00:57.970Z,7.68
2022-10-11T09:03:34.405Z,6.88
2022-10-11T09:06:13.767Z,6.40
2022-10-11T09:08:57.579Z,6.63
2022-10-11T09:11:37.545Z,7.40
2022-10-11T09:14:31.377Z,6.40
2022-10-11T09:17:12.400Z,6.50
2022-10-11T09:20:19.357Z,5.93
2022-10-11T09:22:55.388Z,6.32
2022-10-11T09:25:26.514Z,6.05
2022-10-11T09:28:14.429Z,6.03
2022-10-11T09:30:48.814Z,6.10
2022-10-11T09:33:24.692Z,6.13
2022-10-11T09:35:53.702Z,6.03
2022-10-11T09:38:42.296Z,6.00
2022-10-11T09:41:17.882Z,6.05
2022-10-11T09:43:50.679Z,6.68
2022-10-11T09:46:24.873Z,6.72
2022-10-11T09:48:57.418Z,6.55
2022-10-11T09:51:28.592Z,7.60
2022-10-11T09:53:59.375Z,6.55
2022-10-11T09:56:30.399Z,7.85
2022-10-11T09:59:10.678Z,6.95
2022-10-11T10:01:40.916Z,6.32
2022-10-11T10:04:15.380Z,6.38
2022-10-11T10:06:43.729Z,6.50
2022-10-11T10:09:31.514Z,6.25
2022-10-11T10:11:59.579Z,5.75
2022-10-11T10:14:30.494Z,7.07
2022-10-11T10:17:04.502Z,7.15
2022-10-11T10:19:45.096Z,6.45
2022-10-11T10:22:20.016Z,6.20
2022-10-11T10:24:49.458Z,6.68
2022-10-11T10:27:21.402Z,6.90
2022-10-11T10:30:16.029Z,6.53
2022-10-11T10:32:52.358Z,6.78
2022-10-11T10:35:32.128Z,5.82
2022-10-11T10:38:09.756Z,6.22
2022-10-11T10:40:42.400Z,6.15
2022-10-11T10:43:16.658Z,5.82
2022-10-11T10:46:02.283Z,7.13
2022-10-11T10:49:18.799Z,5.93
2022-10-11T10:51:44.263Z,6.15
2022-10-11T10:54:24.025Z,6.28
2022-10-11T10:56:56.885Z,6.18
2022-10-11T10:59:47.312Z,5.40
2022-10-11T11:02:39.762Z,6.45
2022-10-11T11:05:18.903Z,5.10
2022-10-11T11:07:53.444Z,6.25
2022-10-11T11:10:24.179Z,8.15
2022-10-11T11:13:02.852Z,5.82
2022-10-11T11:15:38.515Z,5.68
2022-10-11T11:18:26.467Z,6.00
2022-10-11T11:21:09.949Z,5.97
2022-10-11T11:23:47.525Z,5.72
2022-10-11T11:26:24.835Z,6.80
2022-10-11T11:29:04.584Z,5.72
2022-10-11T11:31:56.056Z,6.57
2022-10-11T11:34:27.582Z,6.45
2022-10-11T11:36:59.181Z,6.55
2022-10-11T11:39:35.074Z,6.13
2022-10-11T11:42:08.913Z,6.60
2022-10-11T11:44:40.495Z,6.43
2022-10-11T11:47:17.999Z,6.45
2022-10-11T11:49:52.133Z,6.35
2022-10-11T11:52:28.046Z,6.60
2022-10-11T11:55:12.197Z,6.68
2022-10-11T11:58:37.019Z,6.30
2022-10-11T12:01:14.016Z,7.10
2022-10-11T12:03:45.551Z,6.35
2022-10-11T12:06:26.097Z,6.80
2022-10-11T12:09:03.799Z,6.63
2022-10-11T12:11:44.285Z,6.72
2022-10-11T12:14:27.643Z,9.15
2022-10-11T12:17:13.940Z,6.50
2022-10-11T12:19:44.486Z,6.88
2022-10-11T12:22:34.604Z,6.30
2022-10-11T12:25:24.959Z,6.38
2022-10-11T12:27:56.273Z,6.07
2022-10-11T12:30:53.692Z,6.55
2022-10-11T12:33:24.792Z,6.35
2022-10-11T12:36:02.665Z,6.95
2022-10-11T12:38:34.981Z,6.40
2022-10-11T12:41:36.264Z,6.47
2022-10-11T12:44:26.290Z,5.90
2022-10-11T12:47:20.097Z,6.53
2022-10-11T12:50:04.776Z,6.10
2022-10-11T12:52:40.998Z,6.65
2022-10-11T12:55:31.244Z,6.38
2022-10-11T12:58:27.176Z,6.78
2022-10-11T13:01:21.666Z,6.50
2022-10-11T13:03:53.267Z,5.80
2022-10-11T13:06:25.508Z,6.38
2022-10-11T13:08:57.727Z,6.43
2022-10-11T13:11:30.835Z,6.80
2022-10-11T13:14:01.983Z,5.78
2022-10-11T13:16:47.040Z,5.70
2022-10-11T13:19:16.533Z,6.45
2022-10-11T13:21:44.681Z,6.75
2022-10-11T13:24:15.070Z,6.32
2022-10-11T13:26:45.318Z,5.75
2022-10-11T13:29:18.194Z,5.63
2022-10-11T13:31:49.414Z,6.10
2022-10-11T13:34:23.078Z,5.80
2022-10-11T13:36:57.219Z,5.18
2022-10-11T13:39:31.273Z,5.68
2022-10-11T13:42:01.276Z,4.95
2022-10-11T13:44:29.699Z,5.57
2022-10-11T13:46:59.252Z,5.55
2022-10-11T13:49:31.530Z,5.43
2022-10-11T13:52:01.106Z,5.13
2022-10-11T13:55:00.348Z,5.95
2022-10-11T13:57:37.444Z,5.80
2022-10-11T14:00:10.912Z,6.10
2022-10-11T14:02:40.835Z,6.40
2022-10-11T14:05:09.005Z,5.63
2022-10-11T14:07:39.598Z,6.80
2022-10-11T14:10:08.186Z,6.18
2022-10-11T14:12:40.599Z,6.00
2022-10-11T14:15:28.737Z,6.63
2022-10-11T14:17:59.230Z,6.63
2022-10-11T14:20:36.115Z,6.88
2022-10-11T14:23:04.265Z,6.72
2022-10-11T14:25:32.613Z,7.32
2022-10-11T14:28:00.834Z,6.63
2022-10-11T14:30:31.613Z,6.90
2022-10-11T14:33:04.004Z,7.38
2022-10-11T14:35:33.856Z,8.05
2022-10-11T14:38:01.899Z,8.05
2022-10-11T14:40:32.144Z,7.40
2022-10-11T14:43:00.297Z,6.65
2022-10-11T14:45:28.379Z,6.72
2022-10-11T14:47:57.041Z,6.90
2022-10-11T14:50:39.171Z,6.28
2022-10-11T14:53:08.403Z,5.95
2022-10-11T14:55:37.601Z,5.80
2022-10-11T14:58:06.849Z,6.15
2022-10-11T15:00:36.382Z,6.35
2022-10-11T15:03:07.150Z,6.68
2022-10-11T15:05:37.737Z,6.05
2022-10-11T15:08:06.835Z,6.28
2022-10-11T15:10:37.999Z,6.38
2022-10-11T15:13:08.162Z,6.20
2022-10-11T15:15:40.842Z,6.25
2022-10-11T15:18:13.276Z,6.97
2022-10-11T15:20:45.249Z,6.80
2022-10-11T15:23:13.760Z,6.50
2022-10-11T15:25:42.495Z,6.50
2022-10-11T15:28:21.244Z,6.45
2022-10-11T15:30:49.271Z,6.82
2022-10-11T15:33:17.228Z,6.45
2022-10-11T15:35:47.089Z,6.93
2022-10-11T15:38:18.610Z,6.85
2022-10-11T15:40:47.379Z,5.95
2022-10-11T15:43:15.767Z,7.00
2022-10-11T15:45:44.133Z,6.25
2022-10-11T15:48:15.977Z,6.13
2022-10-11T15:50:44.366Z,6.03
2022-10-11T15:53:15.607Z,5.55
2022-10-11T15:55:45.452Z,6.13
2022-10-11T15:58:15.627Z,7.28
2022-10-11T16:00:44.013Z,6.72
2022-10-11T16:03:13.757Z,5.53
2022-10-11T16:05:42.992Z,4.60
2022-10-11T16:08:11.576Z,6.03
2022-10-11T16:10:41.534Z,5.03
2022-10-11T16:13:09.956Z,5.07
2022-10-11T16:15:42.383Z,5.78
2022-10-11T16:18:12.809Z,5.28
2022-10-11T16:20:41.658Z,4.93
2022-10-11T16:23:09.866Z,4.95
2022-10-11T16:25:38.695Z,5.25
2022-10-11T16:28:09.192Z,4.90
2022-10-11T16:30:40.724Z,4.93
2022-10-11T16:33:08.741Z,4.63
2022-10-11T16:35:36.661Z,5.88
2022-10-11T16:38:04.637Z,4.82
2022-10-11T16:40:34.353Z,5.40
2022-10-11T16:43:07.902Z,5.03
2022-10-11T16:45:38.203Z,4.32
2022-10-11T16:48:07.609Z,5.03
2022-10-11T16:50:39.309Z,4.50
2022-10-11T16:53:07.799Z,5.30
2022-10-11T16:55:35.749Z,4.80
2022-10-11T16:58:03.806Z,5.43
2022-10-11T17:00:31.872Z,5.50
2022-10-11T17:03:01.565Z,5.25
2022-10-11T17:05:29.596Z,5.43
2022-10-11T17:07:57.687Z,4.97
2022-10-11T17:10:39.404Z,5.03
2022-10-11T17:13:07.777Z,4.82
2022-10-11T17:15:36.207Z,4.68
2022-10-11T17:18:05.658Z,5.60
2022-10-11T17:20:33.839Z,5.00
2022-10-11T17:23:01.865Z,4.85
2022-10-11T17:25:30.145Z,5.03
2022-10-11T17:27:58.697Z,5.78
2022-10-11T17:30:26.716Z,5.22
2022-10-11T17:32:55.253Z,5.03
2022-10-11T17:35:24.613Z,4.70
2022-10-11T17:37:52.529Z,4.75
2022-10-11T17:40:20.563Z,4.93
2022-10-11T17:42:48.684Z,4.70
2022-10-11T17:45:18.973Z,5.30
2022-10-11T17:47:47.537Z,4.70
2022-10-11T17:50:15.982Z,5.95
2022-10-11T17:52:46.087Z,4.95
2022-10-11T17:55:15.146Z,5.60
2022-10-11T17:57:43.338Z,5.60
2022-10-11T18:00:12.578Z,5.35
2022-10-11T18:02:42.805Z,5.93
2022-10-11T18:05:14.337Z,7.85
2022-10-11T18:07:42.266Z,5.35
2022-10-11T18:10:12.400Z,5.40
2022-10-11T18:12:40.464Z,5.65
2022-10-11T18:15:09.956Z,5.20
2022-10-11T18:17:38.672Z,5.18
2022-10-11T18:20:07.438Z,4.85
2022-10-11T18:22:35.389Z,5.35
2022-10-11T18:25:03.410Z,5.25
2022-10-11T18:27:32.882Z,4.60
2022-10-11T18:30:00.902Z,5.32
2022-10-11T18:32:28.863Z,5.28
2022-10-11T18:34:58.694Z,5.47
2022-10-11T18:37:26.860Z,5.80
2022-10-11T18:39:55.246Z,5.43
2022-10-11T18:42:25.749Z,5.50
2022-10-11T18:44:58.281Z,5.07
2022-10-11T18:47:29.453Z,5.20
2022-10-11T18:49:57.401Z,5.65
2022-10-11T18:52:25.371Z,6.10
2022-10-11T18:54:53.501Z,5.97
2022-10-11T18:57:23.635Z,5.68
2022-10-11T18:59:51.674Z,6.32
2022-10-11T19:02:21.101Z,13.20
2022-10-11T19:04:52.728Z,8.23
2022-10-11T19:07:20.937Z,5.47
2022-10-11T19:09:57.450Z,4.95
2022-10-11T19:12:29.863Z,4.95
2022-10-11T19:14:58.176Z,5.25
2022-10-11T19:17:31.949Z,6.00
2022-10-11T19:20:36.522Z,5.50
2022-10-11T19:23:05.010Z,5.22
2022-10-11T19:25:41.240Z,7.45
2022-10-11T19:28:16.474Z,6.05
2022-10-11T19:30:50.075Z,6.20
2022-10-11T19:33:21.290Z,6.00
2022-10-11T19:36:02.558Z,7.05
2022-10-11T19:38:31.275Z,5.95
2022-10-11T19:41:04.047Z,6.22
2022-10-11T19:43:39.414Z,5.82
2022-10-11T19:46:27.341Z,5.10
2022-10-11T19:49:06.763Z,5.80
2022-10-11T19:51:47.570Z,5.82
2022-10-11T19:54:22.878Z,5.85
2022-10-11T19:56:55.244Z,5.88
2022-10-11T19:59:26.731Z,6.28
2022-10-11T20:01:58.697Z,6.25
2022-10-11T20:04:51.567Z,5.68
2022-10-11T20:07:24.325Z,6.13
2022-10-11T20:09:55.399Z,6.60
2022-10-11T20:12:23.603Z,6.63
2022-10-11T20:14:55.507Z,13.00
2022-10-11T20:17:46.579Z,6.05
2022-10-11T20:20:16.650Z,6.60
2022-10-11T20:22:44.874Z,5.97
2022-10-11T20:25:13.097Z,6.15
2022-10-11T20:27:43.410Z,6.72
2022-10-11T20:30:14.028Z,6.25
2022-10-11T20:32:42.183Z,6.40
2022-10-11T20:35:10.573Z,6.20
2022-10-11T20:37:39.953Z,6.32
2022-10-11T20:40:08.908Z,6.32
2022-10-11T20:42:36.898Z,6.18
2022-10-11T20:45:05.416Z,6.38
2022-10-11T20:47:33.829Z,5.80
2022-10-11T20:50:02.004Z,6.90
2022-10-11T20:52:32.251Z,7.05
2022-10-11T20:55:01.947Z,6.22
2022-10-11T20:57:29.926Z,6.82
2022-10-11T20:59:58.050Z,7.40
2022-10-11T21:02:25.980Z,6.63
2022-10-11T21:04:54.281Z,7.65
2022-10-11T21:07:22.728Z,7.65
2022-10-11T21:09:50.704Z,7.70
2022-10-11T21:12:19.990Z,6.82
2022-10-11T21:14:47.975Z,7.43
2022-10-11T21:17:15.943Z,7.05
2022-10-11T21:19:43.885Z,6.18
2022-10-11T21:22:12.027Z,6.47
2022-10-11T21:24:39.981Z,7.30
2022-10-11T21:27:07.935Z,6.95
2022-10-11T21:29:37.444Z,6.85
2022-10-11T21:32:05.384Z,6.43
2022-10-11T21:34:33.577Z,7.22
2022-10-11T21:37:01.542Z,6.95
2022-10-11T21:39:29.627Z,6.90
2022-10-11T21:41:57.630Z,7.80
2022-10-11T21:44:25.642Z,7.38
2022-10-11T21:47:06.476Z,6.40
2022-10-11T21:49:34.875Z,6.72
2022-10-11T21:52:03.127Z,6.50
2022-10-11T21:54:31.221Z,6.65
2022-10-11T21:56:59.528Z,6.78
2022-10-11T21:59:27.472Z,6.72
2022-10-11T22:02:01.502Z,6.97
2022-10-11T22:04:29.915Z,6.55
2022-10-11T22:06:57.796Z,6.57
2022-10-11T22:09:25.761Z,6.65
2022-10-11T22:11:53.745Z,6.35
2022-10-11T22:14:22.314Z,6.72
2022-10-11T22:16:50.274Z,5.95
2022-10-11T22:19:19.557Z,7.18
2022-10-11T22:21:47.569Z,7.20
2022-10-11T22:24:16.705Z,6.50
2022-10-11T22:26:44.703Z,6.70
2022-10-11T22:29:12.653Z,6.45
2022-10-11T22:31:40.717Z,6.57
2022-10-11T22:34:08.828Z,6.15
2022-10-11T22:36:38.933Z,6.68
2022-10-11T22:39:08.165Z,7.72
2022-10-11T22:41:36.502Z,7.13
2022-10-11T22:44:04.482Z,8.48
2022-10-11T22:46:33.182Z,7.82
2022-10-11T22:49:01.176Z,7.78
2022-10-11T22:51:29.142Z,8.23
2022-10-11T22:53:58.417Z,9.30
2022-10-11T22:56:26.474Z,9.18
2022-10-11T22:58:54.457Z,10.15
2022-10-11T23:01:22.445Z,9.48
2022-10-11T23:03:50.781Z,8.98
2022-10-11T23:06:19.028Z,9.05
2022-10-11T23:08:46.954Z,9.32
2022-10-11T23:11:16.657Z,8.80
2022-10-11T23:13:44.651Z,9.10
2022-10-11T23:16:13.829Z,9.45
2022-10-11T23:18:41.891Z,10.02
2022-10-11T23:21:10.256Z,9.32
2022-10-11T23:27:26.349Z,10.20
2022-10-11T23:29:54.281Z,9.52
2022-10-11T23:32:22.247Z,9.15
2022-10-11T23:34:51.416Z,9.77
2022-10-11T23:37:19.469Z,8.93
2022-10-11T23:39:47.416Z,8.85
2022-10-11T23:42:15.336Z,8.52
2022-10-11T23:44:44.625Z,8.88
2022-10-11T23:47:12.573Z,8.88
2022-10-11T23:49:40.524Z,9.43
2022-10-11T23:52:08.443Z,8.93
2022-10-11T23:54:36.405Z,8.25
2022-10-11T23:57:04.447Z,9.63
2022-10-11T23:59:32.332Z,8.65
